メインページ
METAR-TAF:

METAR-TAF

空港 :

ラルナカ国際空港

ラルナカ, キプロス

緯度: 34-53N, 経度: 033-38E, 海抜: 2m

現時点の気象観測

当レポートは40分前の06:00(UTC)に作成
の風 13kt
気温 15°C
湿度 77%
気圧 1014 hPa
視程: 7000m
高度2500ftの雲は散在している
高度5000ftの雲は散在している
弱いにわか雨

METAR: LCLK 150600Z 17013KT 7000 -SHRA SCT025 SCT050 15/11 Q1014 RERA BECMG NSW

時間: 08:40 (06:40 UTC)

予報

当レポートは1時間10分前の05:30(UTC)に作成
予報は15日の 06時(UTC)から 16日の 06時(UTC)まで有効
南/南東の風 13kt
視程10km以上
高度2500ftの雲はほとんどない
高度5000ftの雲は散在している
確率 30% :
15日の 06時(UTC)から 15日の 15時(UTC)まで一時的に
視程: 5000m
高度2500ftの雲はほとんどない, 積乱雲.
にわか雨
15日の 11時(UTC)から 15日の 15時(UTC)まで徐々に
東/北東の風 10kt
15日の 16時(UTC)から 15日の 19時(UTC)まで徐々に
北/北西の風 9kt

TAF: LCLK 150530Z 1506/1606 15013KT 9999 FEW025 SCT050 PROB30 TEMPO 1506/1515 5000 SHRA FEW025CB BECMG 1511/1515 07010KT BECMG 1516/1519 34009KT

4,000以上の空港の気象観測と天気予報(METAR報とTAF報)

利用可能な観測所は地図上に黄色い丸と赤い丸で示す。

丸の上にカーソルを重ねると観測所名を参照できる。

次にクリックすると気象観測と天気予報を参照できる。

マップの切り替え:黒色「×」印の緑ボタンをクリックして拡大、「-」印の緑ボタンをクリックして縮小、緑色の三角印をクリックして隣りの地図に切り替え


METAR-TAF: